createdAt,value
2023-02-14T00:01:21.185Z,18.80
2023-02-14T00:03:49.469Z,18.70
2023-02-14T00:06:18.927Z,17.23
2023-02-14T00:08:46.696Z,17.53
2023-02-14T00:11:15.510Z,20.13
2023-02-14T00:14:04.089Z,17.90
2023-02-14T00:16:31.243Z,18.20
2023-02-14T00:19:05.638Z,14.80
2023-02-14T00:21:36.671Z,17.87
2023-02-14T00:24:05.367Z,16.07
2023-02-14T00:26:33.324Z,15.50
2023-02-14T00:29:01.206Z,14.83
2023-02-14T00:31:29.282Z,16.30
2023-02-14T00:33:57.329Z,15.77
2023-02-14T00:36:25.212Z,14.13
2023-02-14T00:38:54.532Z,16.30
2023-02-14T00:41:22.561Z,19.73
2023-02-14T00:43:52.533Z,16.17
2023-02-14T00:46:21.730Z,16.53
2023-02-14T00:48:49.833Z,16.00
2023-02-14T00:51:19.077Z,16.77
2023-02-14T00:53:48.705Z,15.80
2023-02-14T00:56:19.930Z,16.57
2023-02-14T00:58:48.432Z,14.57
2023-02-14T01:01:17.751Z,17.43
2023-02-14T01:03:45.638Z,16.60
2023-02-14T01:06:13.604Z,14.23
2023-02-14T01:08:41.496Z,16.13
2023-02-14T01:11:11.002Z,14.93
2023-02-14T01:13:40.573Z,17.97
2023-02-14T01:16:11.039Z,13.77
2023-02-14T01:18:39.767Z,16.57
2023-02-14T01:21:12.583Z,13.30
2023-02-14T01:23:40.955Z,14.27
2023-02-14T01:26:09.630Z,16.70
2023-02-14T01:28:37.819Z,18.27
2023-02-14T01:31:13.054Z,14.83
2023-02-14T01:33:42.319Z,12.63
2023-02-14T01:36:16.892Z,16.57
2023-02-14T01:38:44.860Z,16.30
2023-02-14T01:41:13.592Z,16.17
2023-02-14T01:43:57.017Z,15.53
2023-02-14T01:46:28.605Z,15.20
2023-02-14T01:49:02.845Z,17.20
2023-02-14T01:51:32.063Z,14.23
2023-02-14T01:54:03.789Z,13.33
2023-02-14T01:56:38.142Z,16.47
2023-02-14T01:59:10.975Z,14.13
2023-02-14T02:01:41.595Z,15.40
2023-02-14T02:04:16.345Z,16.27
2023-02-14T02:06:49.013Z,15.07
2023-02-14T02:09:22.857Z,14.87
2023-02-14T02:11:50.923Z,16.90
2023-02-14T02:14:20.737Z,12.40
2023-02-14T02:17:13.577Z,17.60
2023-02-14T02:20:19.760Z,14.17
2023-02-14T02:23:22.712Z,13.90
2023-02-14T02:26:23.825Z,14.73
2023-02-14T02:29:21.510Z,13.73
2023-02-14T02:32:14.027Z,12.97
2023-02-14T02:35:12.251Z,15.70
2023-02-14T02:37:47.395Z,14.57
2023-02-14T02:40:30.160Z,16.00
2023-02-14T02:43:08.306Z,12.90
2023-02-14T02:45:59.487Z,12.97
2023-02-14T02:48:38.084Z,16.87
2023-02-14T02:51:31.002Z,16.80
2023-02-14T02:54:08.075Z,16.00
2023-02-14T02:56:46.081Z,16.83
2023-02-14T02:59:20.591Z,15.70
2023-02-14T03:01:53.481Z,15.27
2023-02-14T03:04:40.575Z,14.30
2023-02-14T03:07:23.657Z,16.80
2023-02-14T03:09:54.512Z,16.83
2023-02-14T03:12:44.775Z,14.67
2023-02-14T03:15:22.226Z,16.00
2023-02-14T03:18:00.868Z,14.87
2023-02-14T03:20:41.418Z,14.37
2023-02-14T03:23:21.645Z,14.07
2023-02-14T03:26:02.005Z,12.87
2023-02-14T03:28:38.445Z,14.07
2023-02-14T03:31:12.636Z,12.57
2023-02-14T03:33:47.741Z,15.07
2023-02-14T03:36:20.815Z,14.60
2023-02-14T03:38:57.038Z,16.73
2023-02-14T03:41:29.856Z,14.53
2023-02-14T03:44:00.328Z,16.93
2023-02-14T03:46:32.194Z,16.13
2023-02-14T03:49:05.473Z,23.03
2023-02-14T03:51:35.583Z,19.37
2023-02-14T03:54:08.020Z,15.37
2023-02-14T03:56:39.872Z,17.90
2023-02-14T03:59:13.271Z,17.50
2023-02-14T04:01:49.369Z,17.90
2023-02-14T04:04:21.160Z,18.47
2023-02-14T04:06:49.337Z,17.43
2023-02-14T04:09:18.483Z,18.40
2023-02-14T04:11:50.375Z,19.33
2023-02-14T04:14:18.882Z,15.63
2023-02-14T04:17:04.405Z,16.93
2023-02-14T04:19:32.848Z,21.07
2023-02-14T04:22:03.743Z,21.23
2023-02-14T04:24:33.211Z,20.03
2023-02-14T04:27:13.062Z,17.83
2023-02-14T04:29:42.286Z,18.53
2023-02-14T04:32:12.739Z,19.93
2023-02-14T04:34:40.890Z,20.57
2023-02-14T04:37:10.391Z,18.57
2023-02-14T04:39:40.021Z,18.30
2023-02-14T04:42:08.707Z,16.63
2023-02-14T04:44:38.328Z,17.73
2023-02-14T04:47:07.635Z,17.07
2023-02-14T04:49:35.852Z,20.10
2023-02-14T04:52:04.335Z,20.73
2023-02-14T04:54:35.166Z,16.07
2023-02-14T04:57:04.515Z,19.10
2023-02-14T04:59:32.695Z,19.00
2023-02-14T05:02:00.822Z,17.37
2023-02-14T05:04:28.658Z,18.33
2023-02-14T05:06:56.584Z,17.07
2023-02-14T05:09:24.349Z,16.70
2023-02-14T05:11:52.595Z,14.90
2023-02-14T05:14:22.055Z,18.50
2023-02-14T05:16:50.082Z,18.67
2023-02-14T05:19:18.132Z,20.53
2023-02-14T05:21:46.256Z,17.10
2023-02-14T05:24:14.247Z,17.93
2023-02-14T05:26:42.139Z,16.83
2023-02-14T05:29:10.086Z,20.57
2023-02-14T05:31:39.564Z,21.00
2023-02-14T05:34:07.516Z,18.23
2023-02-14T05:36:35.410Z,19.30
2023-02-14T05:39:03.144Z,21.93
2023-02-14T05:41:31.371Z,16.90
2023-02-14T05:44:00.474Z,16.70
2023-02-14T05:46:28.371Z,15.43
2023-02-14T05:48:57.506Z,15.43
2023-02-14T05:51:25.512Z,19.50
2023-02-14T05:53:53.432Z,17.80
2023-02-14T05:56:21.462Z,15.43
2023-02-14T05:58:49.234Z,17.47
2023-02-14T06:01:17.071Z,16.67
2023-02-14T06:03:45.179Z,16.30
2023-02-14T06:06:14.390Z,16.47
2023-02-14T06:08:42.387Z,20.40
2023-02-14T06:11:10.217Z,18.40
2023-02-14T06:13:38.053Z,16.47
2023-02-14T06:16:06.261Z,16.07
2023-02-14T06:18:34.064Z,15.50
2023-02-14T06:21:02.102Z,19.17
2023-02-14T06:23:31.472Z,17.13
2023-02-14T06:25:59.284Z,20.73
2023-02-14T06:28:27.223Z,20.20
2023-02-14T06:30:55.159Z,18.97
2023-02-14T06:33:23.199Z,18.03
2023-02-14T06:35:51.075Z,22.70
2023-02-14T06:38:18.983Z,20.13
2023-02-14T06:40:48.304Z,18.97
2023-02-14T06:43:16.161Z,19.27
2023-02-14T06:45:44.445Z,21.13
2023-02-14T06:48:12.387Z,20.20
2023-02-14T06:50:40.162Z,19.17
2023-02-14T06:53:07.879Z,21.20
2023-02-14T06:55:35.817Z,22.87
2023-02-14T06:58:05.086Z,21.63
2023-02-14T07:00:33.361Z,23.30
2023-02-14T07:03:01.407Z,18.60
2023-02-14T07:05:29.424Z,22.80
2023-02-14T07:07:57.232Z,21.73
2023-02-14T07:10:25.293Z,17.97
2023-02-14T07:12:53.424Z,23.97
2023-02-14T07:15:22.670Z,21.30
2023-02-14T07:17:50.597Z,21.70
2023-02-14T07:20:19.308Z,22.83
2023-02-14T07:22:47.114Z,24.90
2023-02-14T07:25:15.136Z,20.67
2023-02-14T07:27:43.025Z,22.03
2023-02-14T07:30:12.814Z,23.27
2023-02-14T07:32:42.410Z,23.63
2023-02-14T07:35:10.535Z,21.60
2023-02-14T07:37:38.483Z,24.00
2023-02-14T07:40:14.370Z,23.23
2023-02-14T07:42:43.066Z,23.73
2023-02-14T07:45:21.981Z,23.70
2023-02-14T07:47:53.080Z,22.60
2023-02-14T07:50:21.723Z,23.27
2023-02-14T07:52:49.776Z,22.13
2023-02-14T07:55:19.362Z,19.70
2023-02-14T07:57:48.858Z,20.80
2023-02-14T08:00:17.172Z,24.27
2023-02-14T08:02:45.024Z,25.07
2023-02-14T08:05:15.002Z,22.93
2023-02-14T08:07:43.139Z,20.43
2023-02-14T08:10:13.006Z,22.23
2023-02-14T08:12:58.574Z,23.80
2023-02-14T08:15:44.278Z,21.03
2023-02-14T08:18:12.398Z,18.67
2023-02-14T08:20:41.654Z,22.10
2023-02-14T08:23:09.674Z,21.67
2023-02-14T08:25:37.666Z,23.30
2023-02-14T08:28:06.176Z,25.03
2023-02-14T08:30:34.457Z,24.83
2023-02-14T08:33:02.411Z,26.33
2023-02-14T08:35:30.290Z,27.83
2023-02-14T08:37:59.668Z,28.50
2023-02-14T08:40:27.966Z,27.97
2023-02-14T08:42:56.038Z,32.73
2023-02-14T08:45:24.497Z,30.57
2023-02-14T08:47:52.435Z,27.53
2023-02-14T08:50:21.022Z,38.93
2023-02-14T08:52:48.961Z,35.57
2023-02-14T08:55:18.418Z,38.57
2023-02-14T08:57:46.183Z,48.00
2023-02-14T09:00:15.089Z,39.97
2023-02-14T09:02:43.417Z,33.50
2023-02-14T09:05:11.282Z,34.70
2023-02-14T09:07:39.275Z,33.40
2023-02-14T09:10:08.931Z,30.90
2023-02-14T09:12:40.154Z,32.27
2023-02-14T09:15:09.464Z,33.00
2023-02-14T09:17:37.711Z,33.40
2023-02-14T09:20:07.043Z,34.80
2023-02-14T09:22:35.345Z,34.17
2023-02-14T09:25:03.310Z,35.47
2023-02-14T09:27:32.375Z,32.53
2023-02-14T09:30:01.862Z,35.37
2023-02-14T09:32:31.626Z,36.43
2023-02-14T09:35:00.307Z,34.13
2023-02-14T09:37:28.595Z,32.53
2023-02-14T09:39:56.379Z,33.20
2023-02-14T09:42:40.389Z,36.17
2023-02-14T09:45:14.516Z,35.97
2023-02-14T09:47:47.634Z,32.60
2023-02-14T09:50:23.728Z,37.70
2023-02-14T09:52:56.927Z,35.17
2023-02-14T09:55:31.715Z,34.13
2023-02-14T09:58:08.845Z,34.30
2023-02-14T10:00:43.452Z,32.90
2023-02-14T10:03:41.006Z,34.70
2023-02-14T10:06:19.978Z,38.73
2023-02-14T10:08:57.048Z,35.13
2023-02-14T10:11:25.856Z,40.47
2023-02-14T10:13:58.908Z,35.53
2023-02-14T10:16:32.920Z,33.00
2023-02-14T10:19:03.749Z,33.70
2023-02-14T10:21:37.437Z,39.63
2023-02-14T10:24:15.185Z,32.00
2023-02-14T10:26:46.122Z,35.53
2023-02-14T10:29:17.035Z,37.07
2023-02-14T10:31:55.829Z,39.83
2023-02-14T10:34:31.166Z,40.20
2023-02-14T10:37:19.897Z,39.53
2023-02-14T10:40:22.851Z,38.50
2023-02-14T10:42:58.457Z,37.73
2023-02-14T10:45:33.400Z,39.60
2023-02-14T10:48:09.567Z,38.43
2023-02-14T10:50:45.269Z,40.73
2023-02-14T10:53:20.517Z,35.70
2023-02-14T10:55:53.984Z,37.07
2023-02-14T10:58:24.379Z,36.03
2023-02-14T11:00:59.969Z,38.77
2023-02-14T11:03:30.753Z,34.50
2023-02-14T11:05:58.799Z,40.33
2023-02-14T11:08:29.838Z,39.33
2023-02-14T11:11:04.213Z,37.43
2023-02-14T11:13:35.431Z,40.23
2023-02-14T11:16:05.914Z,34.83
2023-02-14T11:18:36.930Z,38.03
2023-02-14T11:21:08.390Z,35.70
2023-02-14T11:23:39.663Z,33.87
2023-02-14T11:26:15.110Z,36.80
2023-02-14T11:29:02.422Z,38.83
2023-02-14T11:31:33.371Z,35.70
2023-02-14T11:34:05.710Z,34.73
2023-02-14T11:36:42.197Z,35.80
2023-02-14T11:39:26.951Z,35.07
2023-02-14T11:41:56.750Z,34.70
2023-02-14T11:44:27.243Z,41.23
2023-02-14T11:46:57.579Z,35.37
2023-02-14T11:49:32.876Z,37.13
2023-02-14T11:52:10.386Z,35.47
2023-02-14T11:54:41.117Z,40.20
2023-02-14T11:57:13.448Z,39.70
2023-02-14T11:59:44.810Z,33.40
2023-02-14T12:02:28.209Z,38.87
2023-02-14T12:05:01.448Z,36.73
2023-02-14T12:07:32.757Z,37.73
2023-02-14T12:10:20.545Z,41.03
2023-02-14T12:12:53.747Z,35.80
2023-02-14T12:15:29.943Z,36.60
2023-02-14T12:18:06.818Z,36.73
2023-02-14T12:20:43.268Z,38.30
2023-02-14T12:23:18.112Z,36.27
2023-02-14T12:25:51.304Z,38.37
2023-02-14T12:28:23.876Z,37.13
2023-02-14T12:30:51.721Z,35.57
2023-02-14T12:33:22.341Z,37.60
2023-02-14T12:35:59.271Z,35.07
2023-02-14T12:38:44.762Z,36.40
2023-02-14T12:41:31.351Z,36.00
2023-02-14T12:44:04.303Z,34.23
2023-02-14T12:46:47.968Z,34.63
2023-02-14T12:49:37.397Z,36.90
2023-02-14T12:52:21.195Z,35.33
2023-02-14T12:55:02.402Z,34.33
2023-02-14T12:57:41.479Z,40.03
2023-02-14T13:00:23.164Z,33.43
2023-02-14T13:03:16.737Z,39.43
2023-02-14T13:05:59.285Z,33.43
2023-02-14T13:08:50.940Z,33.93
2023-02-14T13:11:29.932Z,34.80
2023-02-14T13:14:04.826Z,35.73
2023-02-14T13:16:42.754Z,34.10
2023-02-14T13:19:20.553Z,38.37
2023-02-14T13:21:50.814Z,36.23
2023-02-14T13:24:24.540Z,36.47
2023-02-14T13:26:55.470Z,38.60
2023-02-14T13:29:25.914Z,30.27
2023-02-14T13:31:58.742Z,32.13
2023-02-14T13:34:30.598Z,34.73
2023-02-14T13:37:00.121Z,35.77
2023-02-14T13:39:38.328Z,34.80
2023-02-14T13:42:07.623Z,35.07
2023-02-14T13:44:47.575Z,35.47
2023-02-14T13:47:21.061Z,29.77
2023-02-14T13:49:52.280Z,33.30
2023-02-14T13:52:46.794Z,33.03
2023-02-14T13:55:20.330Z,34.13
2023-02-14T13:58:01.584Z,34.63
2023-02-14T14:00:50.491Z,36.67
2023-02-14T14:03:51.763Z,37.43
2023-02-14T14:06:19.746Z,36.07
2023-02-14T14:08:50.332Z,34.03
2023-02-14T14:11:58.497Z,38.67
2023-02-14T14:14:45.585Z,34.37
2023-02-14T14:17:26.005Z,30.90
2023-02-14T14:19:54.809Z,36.63
2023-02-14T14:22:22.974Z,31.87
2023-02-14T14:24:59.697Z,30.17
2023-02-14T14:27:33.064Z,32.80
2023-02-14T14:30:04.549Z,34.53
2023-02-14T14:32:37.621Z,31.47
2023-02-14T14:35:08.331Z,34.23
2023-02-14T14:37:38.361Z,32.00
2023-02-14T14:40:19.851Z,34.00
2023-02-14T14:42:49.981Z,35.60
2023-02-14T14:45:25.563Z,32.97
2023-02-14T14:47:56.646Z,31.77
2023-02-14T14:50:26.936Z,35.20
2023-02-14T14:52:58.695Z,33.87
2023-02-14T14:55:29.317Z,31.73
2023-02-14T14:57:59.075Z,37.00
2023-02-14T15:00:30.330Z,31.90
2023-02-14T15:03:15.189Z,32.57
2023-02-14T15:05:45.591Z,32.47
2023-02-14T15:08:18.392Z,34.60
2023-02-14T15:10:50.815Z,33.93
2023-02-14T15:13:36.314Z,30.70
2023-02-14T15:16:05.855Z,35.23
2023-02-14T15:18:34.027Z,32.90
2023-02-14T15:21:05.262Z,38.43
2023-02-14T15:23:33.464Z,39.77
2023-02-14T15:26:02.686Z,39.97
2023-02-14T15:28:31.848Z,40.80
2023-02-14T15:31:03.023Z,40.23
2023-02-14T15:33:34.373Z,36.93
2023-02-14T15:36:06.624Z,43.63
2023-02-14T15:38:37.663Z,37.57
2023-02-14T15:41:06.476Z,38.13
2023-02-14T15:43:37.887Z,39.43
2023-02-14T15:46:18.099Z,37.37
2023-02-14T15:48:48.506Z,38.63
2023-02-14T15:51:20.509Z,38.20
2023-02-14T15:53:53.013Z,37.37
2023-02-14T15:56:26.208Z,35.90
2023-02-14T15:59:03.375Z,37.27
2023-02-14T16:01:33.258Z,33.10
2023-02-14T16:04:05.433Z,40.30
2023-02-14T16:06:37.402Z,38.23
2023-02-14T16:09:08.345Z,35.97
2023-02-14T16:11:38.172Z,36.17
2023-02-14T16:14:30.566Z,37.37
2023-02-14T16:17:03.982Z,36.30
2023-02-14T16:19:36.282Z,34.00
2023-02-14T16:22:04.501Z,42.87
2023-02-14T16:24:32.749Z,38.60
2023-02-14T16:27:06.942Z,39.03
2023-02-14T16:29:36.688Z,34.27
2023-02-14T16:32:17.025Z,40.03
2023-02-14T16:34:48.451Z,38.63
2023-02-14T16:37:22.578Z,39.57
2023-02-14T16:39:51.753Z,36.10
2023-02-14T16:42:20.047Z,33.07
2023-02-14T16:44:49.200Z,41.87
2023-02-14T16:47:18.432Z,37.20
2023-02-14T16:49:48.703Z,35.47
2023-02-14T16:52:20.695Z,37.60
2023-02-14T16:54:49.524Z,34.60
2023-02-14T16:57:21.652Z,37.33
2023-02-14T16:59:50.273Z,33.90
2023-02-14T17:02:19.601Z,36.07
2023-02-14T17:04:48.778Z,32.13
2023-02-14T17:07:17.346Z,37.87
2023-02-14T17:09:50.597Z,32.80
2023-02-14T17:12:25.796Z,36.40
2023-02-14T17:14:57.280Z,33.67
2023-02-14T17:17:25.818Z,32.20
2023-02-14T17:19:55.065Z,32.53
2023-02-14T17:22:22.863Z,34.27
2023-02-14T17:24:50.621Z,36.40
2023-02-14T17:27:18.410Z,36.30
2023-02-14T17:29:46.402Z,35.60
2023-02-14T17:32:14.943Z,33.33
2023-02-14T17:34:42.892Z,42.13
2023-02-14T17:37:12.255Z,38.20
2023-02-14T17:39:40.179Z,36.87
2023-02-14T17:42:08.669Z,36.57
2023-02-14T17:44:37.852Z,35.80
2023-02-14T17:47:06.309Z,35.77
2023-02-14T17:49:35.785Z,37.20
2023-02-14T17:52:04.073Z,39.90
2023-02-14T17:54:37.703Z,34.80
2023-02-14T17:57:05.789Z,34.30
2023-02-14T17:59:33.869Z,39.47
2023-02-14T18:02:01.758Z,34.30
2023-02-14T18:04:30.050Z,34.67
2023-02-14T18:06:57.749Z,34.53
2023-02-14T18:09:25.972Z,35.70
2023-02-14T18:11:55.583Z,38.30
2023-02-14T18:14:23.702Z,34.87
2023-02-14T18:16:51.605Z,34.73
2023-02-14T18:19:19.381Z,31.53
2023-02-14T18:21:47.222Z,36.03
2023-02-14T18:24:15.626Z,31.70
2023-02-14T18:26:44.599Z,35.33
2023-02-14T18:29:13.966Z,35.93
2023-02-14T18:31:43.575Z,34.77
2023-02-14T18:34:11.906Z,37.90
2023-02-14T18:36:41.509Z,35.97
2023-02-14T18:39:10.615Z,36.57
2023-02-14T18:41:38.446Z,32.43
2023-02-14T18:44:06.932Z,34.53
2023-02-14T18:46:37.418Z,35.33
2023-02-14T18:49:08.398Z,35.70
2023-02-14T18:51:39.180Z,39.50
2023-02-14T18:54:07.993Z,36.63
2023-02-14T18:56:38.080Z,36.07
2023-02-14T18:59:08.484Z,34.03
2023-02-14T19:01:40.744Z,39.53
2023-02-14T19:04:11.946Z,34.27
2023-02-14T19:06:41.838Z,38.70
2023-02-14T19:09:11.992Z,40.93
2023-02-14T19:11:40.466Z,37.03
2023-02-14T19:14:10.614Z,40.20
2023-02-14T19:16:43.872Z,34.10
2023-02-14T19:19:12.126Z,38.40
2023-02-14T19:21:39.913Z,41.23
2023-02-14T19:24:09.595Z,34.63
2023-02-14T19:26:40.535Z,37.03
2023-02-14T19:29:10.710Z,38.93
2023-02-14T19:31:41.682Z,38.73
2023-02-14T19:34:16.073Z,38.73
2023-02-14T19:36:44.048Z,38.17
2023-02-14T19:39:12.754Z,38.80
2023-02-14T19:41:41.282Z,43.17
2023-02-14T19:44:13.130Z,40.50
2023-02-14T19:46:43.399Z,44.03
2023-02-14T19:49:14.493Z,44.27
2023-02-14T19:51:42.810Z,41.10
2023-02-14T19:54:12.497Z,41.30
2023-02-14T19:56:42.103Z,44.10
2023-02-14T19:59:10.469Z,37.03
2023-02-14T20:01:41.529Z,43.73
2023-02-14T20:04:14.687Z,42.57
2023-02-14T20:06:43.286Z,41.00
2023-02-14T20:09:11.587Z,41.13
2023-02-14T20:11:46.633Z,43.47
2023-02-14T20:14:17.534Z,38.53
2023-02-14T20:16:45.930Z,42.77
2023-02-14T20:19:17.502Z,38.67
2023-02-14T20:21:46.367Z,39.63
2023-02-14T20:24:17.527Z,42.93
2023-02-14T20:26:45.690Z,44.67
2023-02-14T20:29:13.486Z,41.87
2023-02-14T20:31:43.858Z,42.23
2023-02-14T20:34:12.229Z,37.73
2023-02-14T20:36:44.484Z,41.03
2023-02-14T20:39:15.233Z,37.60
2023-02-14T20:41:46.472Z,40.47
2023-02-14T20:44:17.021Z,37.30
2023-02-14T20:46:44.986Z,37.03
2023-02-14T20:49:13.102Z,38.47
2023-02-14T20:51:42.221Z,39.57
2023-02-14T20:54:10.027Z,40.83
2023-02-14T20:56:40.082Z,44.90
2023-02-14T20:59:08.612Z,37.40
2023-02-14T21:01:36.499Z,40.43
2023-02-14T21:04:04.369Z,42.33
2023-02-14T21:06:34.120Z,39.60
2023-02-14T21:09:03.587Z,39.90
2023-02-14T21:11:31.635Z,43.40
2023-02-14T21:14:00.697Z,49.63
2023-02-14T21:16:30.318Z,44.27
2023-02-14T21:18:59.948Z,42.30
2023-02-14T21:21:32.333Z,43.13
2023-02-14T21:24:01.795Z,40.00
2023-02-14T21:26:31.030Z,43.37
2023-02-14T21:28:59.258Z,39.83
2023-02-14T21:31:27.259Z,40.53
2023-02-14T21:33:57.400Z,42.07
2023-02-14T21:36:27.364Z,40.03
2023-02-14T21:38:56.918Z,41.00
2023-02-14T21:41:26.493Z,37.80
2023-02-14T21:43:57.408Z,33.43
2023-02-14T21:46:27.515Z,36.47
2023-02-14T21:49:14.041Z,36.30
2023-02-14T21:51:42.010Z,38.63
2023-02-14T21:54:10.685Z,40.40
2023-02-14T21:56:40.102Z,37.73
2023-02-14T21:59:10.296Z,34.83
2023-02-14T22:01:40.392Z,37.60
2023-02-14T22:04:09.721Z,38.97
2023-02-14T22:06:39.834Z,39.33
2023-02-14T22:09:08.033Z,39.13
2023-02-14T22:11:36.102Z,41.60
2023-02-14T22:14:03.974Z,39.93
2023-02-14T22:16:33.581Z,39.73
2023-02-14T22:19:01.318Z,37.53
2023-02-14T22:21:31.086Z,34.97
2023-02-14T22:23:58.900Z,38.33
2023-02-14T22:26:28.405Z,38.00
2023-02-14T22:28:59.129Z,44.03
2023-02-14T22:31:28.321Z,41.23
2023-02-14T22:33:57.861Z,40.93
2023-02-14T22:36:25.745Z,38.17
2023-02-14T22:38:53.647Z,41.07
2023-02-14T22:41:24.176Z,44.27
2023-02-14T22:43:53.116Z,45.17
2023-02-14T22:46:22.434Z,39.50
2023-02-14T22:48:51.246Z,38.87
2023-02-14T22:51:23.549Z,39.63
2023-02-14T22:53:53.187Z,38.57
2023-02-14T22:56:23.753Z,40.00
2023-02-14T22:58:55.404Z,36.53
2023-02-14T23:01:24.149Z,41.40
2023-02-14T23:03:55.278Z,40.30
2023-02-14T23:06:25.953Z,39.00
2023-02-14T23:08:54.369Z,42.40
2023-02-14T23:11:23.848Z,36.80
2023-02-14T23:14:09.299Z,36.13
2023-02-14T23:16:54.964Z,40.53
2023-02-14T23:19:41.482Z,34.80
2023-02-14T23:22:12.739Z,36.07
2023-02-14T23:24:40.759Z,38.73
2023-02-14T23:27:09.297Z,34.60
2023-02-14T23:29:37.471Z,38.60
2023-02-14T23:32:05.563Z,38.20
2023-02-14T23:34:35.753Z,37.37
2023-02-14T23:37:04.265Z,38.93
2023-02-14T23:39:36.717Z,36.77
2023-02-14T23:42:04.899Z,38.43
2023-02-14T23:44:33.803Z,34.23
2023-02-14T23:47:04.270Z,33.30
2023-02-14T23:49:33.053Z,36.67
2023-02-14T23:52:01.198Z,36.57
2023-02-14T23:54:29.526Z,34.80
2023-02-14T23:56:58.880Z,35.17
2023-02-14T23:59:26.988Z,36.77
